createdAt,value
2023-03-12T00:00:34.219Z,117.38
2023-03-12T00:01:35.123Z,117.21
2023-03-12T00:02:34.208Z,117.38
2023-03-12T00:03:34.265Z,117.71
2023-03-12T00:04:34.184Z,116.72
2023-03-12T00:05:34.139Z,117.79
2023-03-12T00:06:35.071Z,118.12
2023-03-12T00:07:34.126Z,116.97
2023-03-12T00:08:34.140Z,117.71
2023-03-12T00:09:34.140Z,117.05
2023-03-12T00:10:34.102Z,117.96
2023-03-12T00:11:34.113Z,117.96
2023-03-12T00:12:35.011Z,117.87
2023-03-12T00:13:34.089Z,117.05
2023-03-12T00:14:34.080Z,116.89
2023-03-12T00:15:34.059Z,117.63
2023-03-12T00:16:34.000Z,117.46
2023-03-12T00:17:34.006Z,117.38
2023-03-12T00:18:34.978Z,116.97
2023-03-12T00:19:34.036Z,117.05
2023-03-12T00:20:33.967Z,117.87
2023-03-12T00:21:34.005Z,118.04
2023-03-12T00:22:33.979Z,117.71
2023-03-12T00:23:34.858Z,117.54
2023-03-12T00:24:34.010Z,118.21
2023-03-12T00:25:33.926Z,117.54
2023-03-12T00:26:33.891Z,117.38
2023-03-12T00:27:33.871Z,117.96
2023-03-12T00:28:33.858Z,117.87
2023-03-12T00:29:34.887Z,117.05
2023-03-12T00:30:33.898Z,117.38
2023-03-12T00:31:33.892Z,117.87
2023-03-12T00:32:33.875Z,117.79
2023-03-12T00:33:33.885Z,118.29
2023-03-12T00:34:33.810Z,118.21
2023-03-12T00:35:34.786Z,118.21
2023-03-12T00:36:33.806Z,117.87
2023-03-12T00:37:33.783Z,117.30
2023-03-12T00:38:33.722Z,118.54
2023-03-12T00:39:33.760Z,117.96
2023-03-12T00:40:34.670Z,118.12
2023-03-12T00:41:33.703Z,117.87
2023-03-12T00:42:33.668Z,117.38
2023-03-12T00:43:33.667Z,118.37
2023-03-12T00:44:33.767Z,117.54
2023-03-12T00:45:34.806Z,117.21
2023-03-12T00:46:33.690Z,118.04
2023-03-12T00:47:33.619Z,117.30
2023-03-12T00:48:33.639Z,118.04
2023-03-12T00:49:33.583Z,117.30
2023-03-12T00:50:34.513Z,117.54
2023-03-12T00:51:33.576Z,117.71
2023-03-12T00:52:33.567Z,118.04
2023-03-12T00:53:33.595Z,116.81
2023-03-12T00:54:33.549Z,117.79
2023-03-12T00:55:33.505Z,118.71
2023-03-12T00:56:34.485Z,118.63
2023-03-12T00:57:33.501Z,118.37
2023-03-12T00:58:33.498Z,117.30
2023-03-12T00:59:33.477Z,118.21
2023-03-12T01:00:33.507Z,117.54
2023-03-12T01:01:34.388Z,117.63
2023-03-12T01:02:33.444Z,117.87
2023-03-12T01:03:33.411Z,117.54
2023-03-12T01:04:33.426Z,117.54
2023-03-12T01:05:35.133Z,117.54
2023-03-12T01:06:34.291Z,117.21
2023-03-12T01:07:33.382Z,117.13
2023-03-12T01:08:33.380Z,116.40
2023-03-12T01:09:33.345Z,117.13
2023-03-12T01:10:33.327Z,116.56
2023-03-12T01:11:34.242Z,116.81
2023-03-12T01:12:33.326Z,117.21
2023-03-12T01:13:33.312Z,116.72
2023-03-12T01:14:33.338Z,116.89
2023-03-12T01:15:33.289Z,117.30
2023-03-12T01:16:33.296Z,116.56
2023-03-12T01:17:34.184Z,116.00
2023-03-12T01:18:33.235Z,116.72
2023-03-12T01:19:33.248Z,116.08
2023-03-12T01:20:33.197Z,116.00
2023-03-12T01:21:33.197Z,116.08
2023-03-12T01:22:33.556Z,115.76
2023-03-12T01:23:34.080Z,115.68
2023-03-12T01:24:33.181Z,116.40
2023-03-12T01:25:33.165Z,115.84
2023-03-12T01:26:33.139Z,116.24
2023-03-12T01:27:33.142Z,115.76
2023-03-12T01:28:34.037Z,116.00
2023-03-12T01:29:33.103Z,115.76
2023-03-12T01:30:33.065Z,115.60
2023-03-12T01:31:33.147Z,116.56
2023-03-12T01:32:33.124Z,115.84
2023-03-12T01:33:33.033Z,116.00
2023-03-12T01:34:33.971Z,116.56
2023-03-12T01:35:33.155Z,116.08
2023-03-12T01:36:33.039Z,116.24
2023-03-12T01:37:33.018Z,116.56
2023-03-12T01:38:32.969Z,116.40
2023-03-12T01:39:32.955Z,116.24
2023-03-12T01:40:33.893Z,116.48
2023-03-12T01:41:32.933Z,116.32
2023-03-12T01:42:32.928Z,116.64
2023-03-12T01:43:32.896Z,116.89
2023-03-12T01:44:32.920Z,116.72
2023-03-12T01:45:32.906Z,116.72
2023-03-12T01:46:33.796Z,116.56
2023-03-12T01:47:32.890Z,116.81
2023-03-12T01:48:32.844Z,116.56
2023-03-12T01:49:32.875Z,116.56
2023-03-12T01:50:32.824Z,116.89
2023-03-12T01:51:33.715Z,116.40
2023-03-12T01:52:32.775Z,116.72
2023-03-12T01:53:32.808Z,116.72
2023-03-12T01:54:32.776Z,115.44
2023-03-12T01:55:32.745Z,116.40
2023-03-12T01:56:32.730Z,116.24
2023-03-12T01:57:33.636Z,115.76
2023-03-12T01:58:32.733Z,115.76
2023-03-12T01:59:32.712Z,115.52
2023-03-12T02:00:32.695Z,116.32
2023-03-12T02:01:32.685Z,115.44
2023-03-12T02:02:32.736Z,116.40
2023-03-12T02:03:33.655Z,115.60
2023-03-12T02:04:32.693Z,115.44
2023-03-12T02:05:32.639Z,115.76
2023-03-12T02:06:32.596Z,115.68
2023-03-12T02:07:32.594Z,116.24
2023-03-12T02:08:33.529Z,115.60
2023-03-12T02:09:32.563Z,115.44
2023-03-12T02:10:32.552Z,116.24
2023-03-12T02:11:32.552Z,115.44
2023-03-12T02:12:32.558Z,115.60
2023-03-12T02:13:33.458Z,115.60
2023-03-12T02:14:32.503Z,115.44
2023-03-12T02:15:32.512Z,115.44
2023-03-12T02:16:32.562Z,115.44
2023-03-12T02:17:32.486Z,116.00
2023-03-12T02:18:32.479Z,115.12
2023-03-12T02:19:33.383Z,114.80
2023-03-12T02:20:32.544Z,115.12
2023-03-12T02:21:32.442Z,115.04
2023-03-12T02:22:32.396Z,114.65
2023-03-12T02:23:32.421Z,114.80
2023-03-12T02:24:33.492Z,114.80
2023-03-12T02:25:32.405Z,115.36
2023-03-12T02:26:32.380Z,115.12
2023-03-12T02:27:32.394Z,115.12
2023-03-12T02:28:32.348Z,114.57
2023-03-12T02:29:32.329Z,115.04
2023-03-12T02:30:33.271Z,114.65
2023-03-12T02:31:32.352Z,114.96
2023-03-12T02:32:32.297Z,114.65
2023-03-12T02:33:32.268Z,114.26
2023-03-12T02:34:32.282Z,114.96
2023-03-12T02:35:33.211Z,114.49
2023-03-12T02:36:32.247Z,115.12
2023-03-12T02:37:32.208Z,113.79
2023-03-12T02:38:32.188Z,113.56
2023-03-12T02:39:32.195Z,114.73
2023-03-12T02:40:32.240Z,114.80
2023-03-12T02:41:33.099Z,113.87
2023-03-12T02:42:32.238Z,114.18
2023-03-12T02:43:32.135Z,114.49
2023-03-12T02:44:32.128Z,114.73
2023-03-12T02:45:32.105Z,114.26
2023-03-12T02:46:32.106Z,114.49
2023-03-12T02:47:33.096Z,114.80
2023-03-12T02:48:32.064Z,115.28
2023-03-12T02:49:32.134Z,114.96
2023-03-12T02:50:32.045Z,115.04
2023-03-12T02:51:32.076Z,114.49
2023-03-12T02:52:32.060Z,114.73
2023-03-12T02:53:32.994Z,114.10
2023-03-12T02:54:32.028Z,114.96
2023-03-12T02:55:31.982Z,115.44
2023-03-12T02:56:31.997Z,115.60
2023-03-12T02:57:31.965Z,115.12
2023-03-12T02:58:31.954Z,115.36
2023-03-12T02:59:32.873Z,115.12
2023-03-12T03:00:31.943Z,115.84
2023-03-12T03:01:31.956Z,115.76
2023-03-12T03:02:31.899Z,115.20
2023-03-12T03:03:31.894Z,116.08
2023-03-12T03:04:31.956Z,116.32
2023-03-12T03:05:32.796Z,115.84
2023-03-12T03:06:31.853Z,116.56
2023-03-12T03:07:31.842Z,116.40
2023-03-12T03:08:31.831Z,116.48
2023-03-12T03:09:31.797Z,116.97
2023-03-12T03:10:32.760Z,116.32
2023-03-12T03:11:31.782Z,117.38
2023-03-12T03:12:31.772Z,117.38
2023-03-12T03:14:15.620Z,196.32
2023-03-12T03:15:16.475Z,165.02
2023-03-12T03:16:15.587Z,148.49
2023-03-12T03:17:15.594Z,140.17
2023-03-12T03:18:15.744Z,133.47
2023-03-12T03:19:15.450Z,129.54
2023-03-12T03:20:15.467Z,127.57
2023-03-12T03:21:16.394Z,125.00
2023-03-12T03:22:15.666Z,123.98
2023-03-12T03:23:15.424Z,122.35
2023-03-12T03:24:15.470Z,121.82
2023-03-12T03:25:15.901Z,120.50
2023-03-12T03:26:16.322Z,120.24
2023-03-12T03:27:15.367Z,120.24
2023-03-12T03:28:15.378Z,120.16
2023-03-12T03:29:15.385Z,120.33
2023-03-12T03:30:15.313Z,119.22
2023-03-12T03:31:16.316Z,119.39
2023-03-12T03:32:15.374Z,119.56
2023-03-12T03:33:15.309Z,119.05
2023-03-12T03:34:15.347Z,118.88
2023-03-12T03:35:15.270Z,118.88
2023-03-12T03:36:16.192Z,118.63
2023-03-12T03:37:15.264Z,118.88
2023-03-12T03:38:15.275Z,119.13
2023-03-12T03:39:15.223Z,118.79
2023-03-12T03:40:15.212Z,118.46
2023-03-12T03:41:16.169Z,118.12
2023-03-12T03:42:15.156Z,117.46
2023-03-12T03:43:15.160Z,118.37
2023-03-12T03:44:15.172Z,118.79
2023-03-12T03:45:15.178Z,118.12
2023-03-12T03:46:15.164Z,118.21
2023-03-12T03:47:16.996Z,118.54
2023-03-12T03:48:15.103Z,117.79
2023-03-12T03:49:15.138Z,118.54
2023-03-12T03:50:15.120Z,118.88
2023-03-12T03:51:15.071Z,119.22
2023-03-12T03:52:16.027Z,118.96
2023-03-12T03:53:15.034Z,119.73
2023-03-12T03:54:15.095Z,119.30
2023-03-12T03:55:15.004Z,119.05
2023-03-12T03:56:15.018Z,119.73
2023-03-12T03:57:15.927Z,118.63
2023-03-12T03:58:15.025Z,119.39
2023-03-12T03:59:15.019Z,118.46
2023-03-12T04:00:14.982Z,119.56
2023-03-12T04:01:14.964Z,119.05
2023-03-12T04:02:14.925Z,120.24
2023-03-12T04:03:15.883Z,119.64
2023-03-12T04:04:14.920Z,120.07
2023-03-12T04:05:14.960Z,119.99
2023-03-12T04:06:14.870Z,119.81
2023-03-12T04:07:14.872Z,120.16
2023-03-12T04:08:14.920Z,120.33
2023-03-12T04:09:15.768Z,120.24
2023-03-12T04:10:14.870Z,120.07
2023-03-12T04:11:14.902Z,120.42
2023-03-12T04:12:14.862Z,120.59
2023-03-12T04:13:15.021Z,120.24
2023-03-12T04:14:15.716Z,120.07
2023-03-12T04:15:14.876Z,121.38
2023-03-12T04:16:14.808Z,120.68
2023-03-12T04:17:14.814Z,120.24
2023-03-12T04:18:14.792Z,119.73
2023-03-12T04:19:15.672Z,120.76
2023-03-12T04:20:15.001Z,120.24
2023-03-12T04:21:14.674Z,119.81
2023-03-12T04:22:14.727Z,120.94
2023-03-12T04:23:14.681Z,120.76
2023-03-12T04:24:14.682Z,120.33
2023-03-12T04:25:15.648Z,120.94
2023-03-12T04:26:14.637Z,119.73
2023-03-12T04:27:14.674Z,120.42
2023-03-12T04:28:14.654Z,120.68
2023-03-12T04:29:14.606Z,121.03
2023-03-12T04:30:16.508Z,120.59
2023-03-12T04:31:14.600Z,120.50
2023-03-12T04:33:38.244Z,192.76
2023-03-12T04:34:40.193Z,164.05
2023-03-12T04:35:39.101Z,149.15
2023-03-12T04:36:38.179Z,140.87
2023-03-12T04:37:38.127Z,134.32
2023-03-12T04:38:38.136Z,131.37
2023-03-12T04:39:38.203Z,129.34
2023-03-12T04:40:38.134Z,126.61
2023-03-12T04:41:39.024Z,125.09
2023-03-12T04:42:38.079Z,124.54
2023-03-12T04:43:38.129Z,123.80
2023-03-12T04:44:38.108Z,122.89
2023-03-12T04:45:38.214Z,122.89
2023-03-12T04:46:38.063Z,121.91
2023-03-12T04:47:38.941Z,122.89
2023-03-12T04:48:38.090Z,122.17
2023-03-12T04:49:37.948Z,121.29
2023-03-12T04:50:38.038Z,121.82
2023-03-12T04:51:37.977Z,121.64
2023-03-12T04:52:37.938Z,121.03
2023-03-12T04:53:38.894Z,122.26
2023-03-12T04:54:38.023Z,121.38
2023-03-12T04:55:37.912Z,120.76
2023-03-12T04:56:37.896Z,121.55
2023-03-12T04:57:37.910Z,120.76
2023-03-12T04:58:38.824Z,121.11
2023-03-12T04:59:37.904Z,121.64
2023-03-12T05:00:37.952Z,121.55
2023-03-12T05:01:37.834Z,121.46
2023-03-12T05:02:37.915Z,121.46
2023-03-12T05:03:38.853Z,121.03
2023-03-12T05:04:37.830Z,121.20
2023-03-12T05:05:37.938Z,121.38
2023-03-12T05:06:37.785Z,121.11
2023-03-12T05:07:37.795Z,121.38
2023-03-12T05:08:37.741Z,122.53
2023-03-12T05:09:38.675Z,122.17
2023-03-12T05:10:37.765Z,122.17
2023-03-12T05:11:39.705Z,121.46
2023-03-12T05:12:37.676Z,121.46
2023-03-12T05:13:37.690Z,121.38
2023-03-12T05:14:38.611Z,121.73
2023-03-12T05:15:37.680Z,121.64
2023-03-12T05:16:37.649Z,121.73
2023-03-12T05:17:37.607Z,121.55
2023-03-12T05:18:37.602Z,122.17
2023-03-12T05:19:38.561Z,121.73
2023-03-12T05:20:37.595Z,121.46
2023-03-12T05:21:38.575Z,121.64
2023-03-12T05:22:37.569Z,122.17
2023-03-12T05:23:37.549Z,122.71
2023-03-12T05:24:37.581Z,122.89
2023-03-12T05:25:38.446Z,122.00
2023-03-12T05:26:37.540Z,121.73
2023-03-12T05:27:37.498Z,122.71
2023-03-12T05:28:37.544Z,121.29
2023-03-12T05:29:37.491Z,121.82
2023-03-12T05:30:37.479Z,121.82
2023-03-12T05:31:38.451Z,122.26
2023-03-12T05:32:37.478Z,122.71
2023-03-12T05:33:37.494Z,121.73
2023-03-12T05:34:37.416Z,121.73
2023-03-12T05:35:37.479Z,121.38
2023-03-12T05:36:37.447Z,122.62
2023-03-12T05:37:38.377Z,121.73
2023-03-12T05:38:37.334Z,122.17
2023-03-12T05:39:37.393Z,121.29
2023-03-12T05:40:37.357Z,121.46
2023-03-12T05:41:37.347Z,121.64
2023-03-12T05:42:38.213Z,122.08
2023-03-12T05:43:37.705Z,122.00
2023-03-12T05:46:17.792Z,190.75
2023-03-12T05:47:20.426Z,162.78
2023-03-12T05:48:18.554Z,149.42
2023-03-12T05:49:17.675Z,140.87
2023-03-12T05:50:17.614Z,135.63
2023-03-12T05:51:17.606Z,131.79
2023-03-12T05:52:17.591Z,129.84
2023-03-12T05:53:17.629Z,127.96
2023-03-12T05:54:18.488Z,126.13
2023-03-12T05:55:17.542Z,125.28
2023-03-12T05:56:17.517Z,124.35
2023-03-12T05:57:17.585Z,124.35
2023-03-12T05:58:17.504Z,123.98
2023-03-12T05:59:17.510Z,123.89
2023-03-12T06:00:18.427Z,122.53
2023-03-12T06:01:17.476Z,121.38
2023-03-12T06:02:18.553Z,121.38
2023-03-12T06:03:17.547Z,121.29
2023-03-12T06:04:17.465Z,121.64
2023-03-12T06:05:17.589Z,121.46
2023-03-12T06:06:18.310Z,121.73
2023-03-12T06:07:17.378Z,121.03
2023-03-12T06:08:17.377Z,119.99
2023-03-12T06:09:17.404Z,118.96
2023-03-12T06:10:17.361Z,120.68
2023-03-12T06:11:17.651Z,119.13
2023-03-12T06:12:18.341Z,119.56
2023-03-12T06:13:17.303Z,119.13
2023-03-12T06:14:17.320Z,118.71
2023-03-12T06:15:17.321Z,119.13
2023-03-12T06:16:17.299Z,118.37
2023-03-12T06:17:17.304Z,117.87
2023-03-12T06:18:18.218Z,117.21
2023-03-12T06:19:17.438Z,117.38
2023-03-12T06:20:17.238Z,117.30
2023-03-12T06:21:17.225Z,117.46
2023-03-12T06:22:17.210Z,117.96
2023-03-12T06:23:20.370Z,117.46
2023-03-12T06:24:17.180Z,116.32
2023-03-12T06:25:17.173Z,117.05
2023-03-12T06:26:17.208Z,117.46
2023-03-12T06:27:17.159Z,116.97
2023-03-12T06:28:17.145Z,116.56
2023-03-12T06:29:18.075Z,116.48
2023-03-12T06:30:17.089Z,116.08
2023-03-12T06:31:17.135Z,116.40
2023-03-12T06:32:17.312Z,116.16
2023-03-12T06:33:17.081Z,115.76
2023-03-12T06:34:17.081Z,116.08
2023-03-12T06:35:17.975Z,115.44
2023-03-12T06:36:17.060Z,115.36
2023-03-12T06:37:17.049Z,115.44
2023-03-12T06:38:17.000Z,115.52
2023-03-12T06:39:17.059Z,115.44
2023-03-12T06:40:17.957Z,114.80
2023-03-12T06:41:16.996Z,115.60
2023-03-12T06:42:16.983Z,114.33
2023-03-12T06:43:16.929Z,114.41
2023-03-12T06:44:16.974Z,114.02
2023-03-12T06:45:18.099Z,114.88
2023-03-12T06:46:17.894Z,113.87
2023-03-12T06:47:17.802Z,114.26
2023-03-12T06:49:39.665Z,185.90
2023-03-12T06:50:39.692Z,154.80
2023-03-12T06:51:45.984Z,140.28
2023-03-12T06:52:39.607Z,132.94
2023-03-12T06:53:42.195Z,126.61
2023-03-12T06:54:39.717Z,123.16
2023-03-12T06:55:39.593Z,121.11
2023-03-12T06:56:39.656Z,118.96
2023-03-12T06:57:40.484Z,117.54
2023-03-12T06:58:39.641Z,116.40
2023-03-12T06:59:39.578Z,115.12
2023-03-12T07:00:39.553Z,114.96
2023-03-12T07:01:43.743Z,114.10
2023-03-12T07:02:39.500Z,113.79
2023-03-12T07:03:40.429Z,113.33
2023-03-12T07:04:39.616Z,112.79
2023-03-12T07:05:39.506Z,112.79
2023-03-12T07:06:39.488Z,112.49
2023-03-12T07:07:39.492Z,111.89
2023-03-12T07:08:40.392Z,111.29
2023-03-12T07:09:39.530Z,111.29
2023-03-12T07:10:39.395Z,110.85
2023-03-12T07:11:39.426Z,110.85
2023-03-12T07:12:39.429Z,110.56
2023-03-12T07:13:39.450Z,110.49
2023-03-12T07:14:40.413Z,110.12
2023-03-12T07:15:39.392Z,109.98
2023-03-12T07:16:39.431Z,110.12
2023-03-12T07:17:39.424Z,109.33
2023-03-12T07:18:39.317Z,109.55
2023-03-12T07:19:40.269Z,109.40
2023-03-12T07:20:39.307Z,109.26
2023-03-12T07:21:39.312Z,108.84
2023-03-12T07:22:39.337Z,109.55
2023-03-12T07:23:39.275Z,108.41
2023-03-12T07:24:40.212Z,109.26
2023-03-12T07:25:39.252Z,108.27
2023-03-12T07:26:39.198Z,108.77
2023-03-12T07:27:39.284Z,108.84
2023-03-12T07:28:39.170Z,108.13
2023-03-12T07:29:40.112Z,107.65
2023-03-12T07:30:39.182Z,109.33
2023-03-12T07:31:39.234Z,107.17
2023-03-12T07:32:39.192Z,107.03
2023-03-12T07:33:39.330Z,108.48
2023-03-12T07:34:39.167Z,107.03
2023-03-12T07:35:40.148Z,107.17
2023-03-12T07:36:39.186Z,107.86
2023-03-12T07:37:39.122Z,108.13
2023-03-12T07:38:39.117Z,107.86
2023-03-12T07:39:39.135Z,108.27
2023-03-12T07:40:39.189Z,107.65
2023-03-12T07:41:39.964Z,106.21
2023-03-12T07:42:39.044Z,107.17
2023-03-12T07:43:39.093Z,106.28
2023-03-12T07:44:39.041Z,106.35
2023-03-12T07:45:39.109Z,106.48
2023-03-12T07:46:38.986Z,105.94
2023-03-12T07:47:40.155Z,105.41
2023-03-12T07:48:38.991Z,105.41
2023-03-12T07:49:38.990Z,104.82
2023-03-12T07:50:38.913Z,105.21
2023-03-12T07:51:38.909Z,103.91
2023-03-12T07:52:39.811Z,104.49
2023-03-12T07:53:38.972Z,103.91
2023-03-12T07:54:39.082Z,103.01
2023-03-12T07:57:17.924Z,166.01
2023-03-12T07:58:18.937Z,138.77
2023-03-12T07:59:17.866Z,125.56
2023-03-12T08:00:17.800Z,117.71
2023-03-12T08:01:18.719Z,113.10
2023-03-12T08:02:18.838Z,109.91
2023-03-12T08:03:18.872Z,107.37
2023-03-12T08:04:18.782Z,105.15
2023-03-12T08:05:17.782Z,103.71
2023-03-12T08:06:17.761Z,102.20
2023-03-12T08:07:17.741Z,101.58
2023-03-12T08:08:17.718Z,100.60
2023-03-12T08:09:17.672Z,100.24
2023-03-12T08:10:18.614Z,99.11
2023-03-12T08:11:17.699Z,99.46
2023-03-12T08:12:17.665Z,99.17
2023-03-12T08:13:17.715Z,98.24
2023-03-12T08:14:17.634Z,97.84
2023-03-12T08:15:18.582Z,97.38
2023-03-12T08:16:17.604Z,97.33
2023-03-12T08:17:17.567Z,97.21
2023-03-12T08:18:17.601Z,96.60
2023-03-12T08:19:17.543Z,96.26
2023-03-12T08:20:19.359Z,96.38
2023-03-12T08:21:17.588Z,96.65
2023-03-12T08:22:17.492Z,95.50
2023-03-12T08:23:17.562Z,95.82
2023-03-12T08:24:17.566Z,95.17
2023-03-12T08:25:17.438Z,95.06
2023-03-12T08:26:18.368Z,94.90
2023-03-12T08:27:17.407Z,94.05
2023-03-12T08:28:17.432Z,94.15
2023-03-12T08:29:17.506Z,94.58
2023-03-12T08:30:17.385Z,93.84
2023-03-12T08:31:18.391Z,95.57
2023-03-12T08:32:17.504Z,95.03
2023-03-12T08:33:17.795Z,95.03
2023-03-12T08:34:17.899Z,94.39
2023-03-12T08:35:17.757Z,94.28
2023-03-12T08:36:20.097Z,93.86
2023-03-12T08:37:17.285Z,93.55
2023-03-12T08:38:17.472Z,92.82
2023-03-12T08:39:17.337Z,92.31
2023-03-12T08:40:17.335Z,92.00
2023-03-12T08:41:17.266Z,91.60
2023-03-12T08:42:18.155Z,91.00
2023-03-12T08:43:17.293Z,90.61
2023-03-12T08:44:17.246Z,90.32
2023-03-12T08:45:17.242Z,89.93
2023-03-12T08:46:17.230Z,89.45
2023-03-12T08:47:18.081Z,89.35
2023-03-12T08:48:17.297Z,89.26
2023-03-12T08:49:17.138Z,88.50
2023-03-12T08:50:17.171Z,88.41
2023-03-12T08:51:17.144Z,88.32
2023-03-12T08:52:18.027Z,88.13
2023-03-12T08:53:17.196Z,88.04
2023-03-12T08:54:17.089Z,88.22
2023-03-12T08:55:17.085Z,88.50
2023-03-12T08:56:17.134Z,88.50
2023-03-12T08:57:18.004Z,88.50
2023-03-12T08:58:17.104Z,88.69
2023-03-12T08:59:17.027Z,88.79
2023-03-12T09:00:16.980Z,88.88
2023-03-12T09:01:17.087Z,88.69
2023-03-12T09:02:16.994Z,88.60
2023-03-12T09:03:17.996Z,88.69
2023-03-12T09:04:16.971Z,88.32
2023-03-12T09:05:16.950Z,88.32
2023-03-12T09:06:17.039Z,88.13
2023-03-12T09:08:56.141Z,139.70
2023-03-12T09:09:56.156Z,117.05
2023-03-12T09:10:56.148Z,104.88
2023-03-12T09:11:57.040Z,98.30
2023-03-12T09:12:56.071Z,94.31
2023-03-12T09:15:02.389Z,153.81
2023-03-12T09:15:41.256Z,125.56
2023-03-12T09:16:40.279Z,110.85
2023-03-12T09:17:40.209Z,102.20
2023-03-12T09:18:40.225Z,96.15
2023-03-12T09:19:41.140Z,94.82
2023-03-12T09:20:40.171Z,91.60
2023-03-12T09:21:40.284Z,89.26
2023-03-12T09:22:40.265Z,88.13
2023-03-12T09:23:40.132Z,86.23
2023-03-12T09:24:40.136Z,85.78
2023-03-12T09:25:41.060Z,84.74
2023-03-12T09:26:40.077Z,84.06
2023-03-12T09:27:40.080Z,82.90
2023-03-12T09:28:40.086Z,82.25
2023-03-12T09:29:53.464Z,81.29
2023-03-12T09:30:41.584Z,81.13
2023-03-12T09:31:40.989Z,79.74
2023-03-12T09:32:40.084Z,79.14
2023-03-12T09:33:40.026Z,78.84
2023-03-12T09:34:39.984Z,77.96
2023-03-12T09:35:39.988Z,77.89
2023-03-12T09:36:39.971Z,77.45
2023-03-12T09:37:40.918Z,77.60
2023-03-12T09:38:39.958Z,77.53
2023-03-12T09:39:39.903Z,77.45
2023-03-12T09:40:39.951Z,77.10
2023-03-12T09:41:39.944Z,77.17
2023-03-12T09:42:39.885Z,76.67
2023-03-12T09:43:40.827Z,76.53
2023-03-12T09:44:39.877Z,76.39
2023-03-12T09:45:39.863Z,75.50
2023-03-12T09:46:39.850Z,75.23
2023-03-12T09:47:39.806Z,74.96
2023-03-12T09:48:40.776Z,74.62
2023-03-12T09:49:39.793Z,73.96
2023-03-12T09:50:39.794Z,73.71
2023-03-12T09:51:39.786Z,73.51
2023-03-12T09:52:39.784Z,73.19
2023-03-12T09:53:40.686Z,72.81
2023-03-12T09:54:39.712Z,72.62
2023-03-12T09:55:39.728Z,72.56
2023-03-12T09:56:39.713Z,71.93
2023-03-12T09:57:39.749Z,71.44
2023-03-12T09:58:39.676Z,71.20
2023-03-12T09:59:40.713Z,70.90
2023-03-12T10:00:39.663Z,70.01
2023-03-12T10:01:39.650Z,69.89
2023-03-12T10:02:39.634Z,69.60
2023-03-12T10:03:39.678Z,69.49
2023-03-12T10:04:58.185Z,68.86
2023-03-12T10:05:41.094Z,69.08
2023-03-12T10:06:39.579Z,68.97
2023-03-12T10:07:39.543Z,68.74
2023-03-12T10:08:39.575Z,69.08
2023-03-12T10:09:39.539Z,68.41
2023-03-12T10:10:40.444Z,68.74
2023-03-12T10:11:39.533Z,67.91
2023-03-12T10:12:39.496Z,68.29
2023-03-12T10:13:39.509Z,67.53
2023-03-12T10:14:39.520Z,67.53
2023-03-12T10:15:39.490Z,67.31
2023-03-12T10:16:40.359Z,67.42
2023-03-12T10:17:39.437Z,68.13
2023-03-12T10:18:39.556Z,67.42
2023-03-12T10:19:39.417Z,67.20
2023-03-12T10:20:39.399Z,66.77
2023-03-12T10:21:40.335Z,67.15
2023-03-12T10:22:39.362Z,67.15
2023-03-12T10:23:39.378Z,66.82
2023-03-12T10:24:39.332Z,66.56
2023-03-12T10:25:39.323Z,66.35
2023-03-12T10:26:39.327Z,66.29
2023-03-12T10:27:40.243Z,65.72
2023-03-12T10:28:39.289Z,65.72
2023-03-12T10:29:39.313Z,65.72
2023-03-12T10:30:39.299Z,65.52
2023-03-12T10:31:39.293Z,65.52
2023-03-12T10:32:39.258Z,65.78
2023-03-12T10:33:40.156Z,65.62
2023-03-12T10:34:39.241Z,65.62
2023-03-12T10:35:39.220Z,65.11
2023-03-12T10:36:39.195Z,65.36
2023-03-12T10:37:39.185Z,64.61
2023-03-12T10:38:39.151Z,64.61
2023-03-12T10:39:40.162Z,64.61
2023-03-12T10:40:39.160Z,64.41
2023-03-12T10:41:39.129Z,64.31
2023-03-12T10:42:39.101Z,64.46
2023-03-12T10:43:39.096Z,65.01
2023-03-12T10:44:39.103Z,65.21
2023-03-12T10:45:39.998Z,65.83
2023-03-12T10:46:39.146Z,66.19
2023-03-12T10:47:39.076Z,66.29
2023-03-12T10:48:39.091Z,66.24
2023-03-12T10:49:39.010Z,66.19
2023-03-12T10:50:39.985Z,66.19
2023-03-12T10:51:39.003Z,66.09
2023-03-12T10:52:38.983Z,66.19
2023-03-12T10:53:38.978Z,65.31
2023-03-12T10:54:38.952Z,65.78
2023-03-12T10:55:38.949Z,65.83
2023-03-12T10:56:39.871Z,65.57
2023-03-12T10:57:38.913Z,65.72
2023-03-12T10:58:38.921Z,65.67
2023-03-12T10:59:38.967Z,65.31
2023-03-12T11:00:38.868Z,66.14
2023-03-12T11:01:39.819Z,65.72
2023-03-12T11:02:38.840Z,65.11
2023-03-12T11:03:38.871Z,64.66
2023-03-12T11:04:38.842Z,64.76
2023-03-12T11:05:38.866Z,64.91
2023-03-12T11:06:38.823Z,64.96
2023-03-12T11:07:39.774Z,64.61
2023-03-12T11:08:38.818Z,64.51
2023-03-12T11:09:38.856Z,64.51
2023-03-12T11:10:38.772Z,64.11
2023-03-12T11:11:38.744Z,64.01
2023-03-12T11:12:39.742Z,63.92
2023-03-12T11:13:38.758Z,63.72
2023-03-12T11:14:38.743Z,63.97
2023-03-12T11:15:38.772Z,64.06
2023-03-12T11:16:38.673Z,63.97
2023-03-12T11:17:38.675Z,64.06
2023-03-12T11:18:39.653Z,63.53
2023-03-12T11:19:38.645Z,63.72
2023-03-12T11:20:38.644Z,63.29
2023-03-12T11:21:38.600Z,63.15
2023-03-12T11:22:38.601Z,63.24
2023-03-12T11:23:38.607Z,63.05
2023-03-12T11:24:39.504Z,63.05
2023-03-12T11:25:38.597Z,62.96
2023-03-12T11:26:38.581Z,63.05
2023-03-12T11:27:38.544Z,62.96
2023-03-12T11:28:38.512Z,62.58
2023-03-12T11:29:39.460Z,62.21
2023-03-12T11:30:38.536Z,61.93
2023-03-12T11:31:38.551Z,61.89
2023-03-12T11:32:38.498Z,61.98
2023-03-12T11:33:38.460Z,61.61
2023-03-12T11:34:38.479Z,61.98
2023-03-12T11:35:39.404Z,62.30
2023-03-12T11:36:38.454Z,62.07
2023-03-12T11:37:40.385Z,62.58
2023-03-12T11:38:38.399Z,62.96
2023-03-12T11:39:38.372Z,62.86
2023-03-12T11:40:39.302Z,63.53
2023-03-12T11:41:38.369Z,63.34
2023-03-12T11:42:38.328Z,63.58
2023-03-12T11:43:43.543Z,63.82
2023-03-12T11:44:39.840Z,64.06
2023-03-12T11:45:38.300Z,63.82
2023-03-12T11:46:39.297Z,64.21
2023-03-12T11:47:38.345Z,64.31
2023-03-12T11:48:38.347Z,64.51
2023-03-12T11:49:38.239Z,64.76
2023-03-12T11:50:38.247Z,65.21
2023-03-12T11:51:39.174Z,65.31
2023-03-12T11:52:38.253Z,66.09
2023-03-12T11:53:38.224Z,66.24
2023-03-12T11:54:38.192Z,66.51
2023-03-12T11:55:38.197Z,66.51
2023-03-12T11:56:38.174Z,66.72
2023-03-12T11:57:39.072Z,66.88
2023-03-12T11:58:38.152Z,67.04
2023-03-12T11:59:38.113Z,66.72
2023-03-12T12:00:38.125Z,66.77
2023-03-12T12:01:38.127Z,66.51
2023-03-12T12:02:39.009Z,66.88
2023-03-12T12:03:38.121Z,66.45
2023-03-12T12:04:38.082Z,65.88
2023-03-12T12:05:38.053Z,65.62
2023-03-12T12:06:38.044Z,65.31
2023-03-12T12:07:38.974Z,65.11
2023-03-12T12:08:37.991Z,64.91
2023-03-12T12:09:37.993Z,64.56
2023-03-12T12:10:37.998Z,64.51
2023-03-12T12:11:37.995Z,64.51
2023-03-12T12:12:37.951Z,64.71
2023-03-12T12:13:38.885Z,64.51
2023-03-12T12:14:37.941Z,65.52
2023-03-12T12:15:37.931Z,65.31
2023-03-12T12:16:37.944Z,64.96
2023-03-12T12:17:37.927Z,65.57
2023-03-12T12:18:37.894Z,65.06
2023-03-12T12:19:38.797Z,65.11
2023-03-12T12:20:37.840Z,65.31
2023-03-12T12:21:37.850Z,64.91
2023-03-12T12:22:37.812Z,65.01
2023-03-12T12:23:37.826Z,64.96
2023-03-12T12:24:37.827Z,64.91
2023-03-12T12:25:38.723Z,64.56
2023-03-12T12:26:37.777Z,64.81
2023-03-12T12:27:37.781Z,64.46
2023-03-12T12:28:37.776Z,64.41
2023-03-12T12:29:37.760Z,64.16
2023-03-12T12:30:37.731Z,64.26
2023-03-12T12:31:38.703Z,64.66
2023-03-12T12:32:37.726Z,64.01
2023-03-12T12:33:37.721Z,64.11
2023-03-12T12:34:37.691Z,63.34
2023-03-12T12:35:37.740Z,63.97
2023-03-12T12:36:37.640Z,63.82
2023-03-12T12:37:38.585Z,63.92
2023-03-12T12:38:37.648Z,63.63
2023-03-12T12:39:37.629Z,63.97
2023-03-12T12:40:37.600Z,63.38
2023-03-12T12:41:37.622Z,63.38
2023-03-12T12:42:37.636Z,62.96
2023-03-12T12:43:38.529Z,63.29
2023-03-12T12:44:37.569Z,63.05
2023-03-12T12:45:37.623Z,62.72